Ryuhomaru — JD2639 — position and weather

sailwx.info

Track history (hours):
 
Tides and Currents Weather Stations Pressure Air Temp Water Temp Dewpoint Dewpoint Depression Visibility Wind Speed Wind Dir Waves Ship Positions

Ryuhomaru

Last reported at 2015-Jun-30 04:33 UTC. Time now 2015-Jun-30 14:26 UTC.
Position N 34°33' E 135°26'.

Length 42 m; draft 3.5 m.

Type: Tug. MMSI: 431000586.

Date/timePositionNaut miles runAvg speedWind from/ knotsBaromVisibWave heightAir tempDewpointWater temp
2015-Jun-30 04:33N 34°33' E 135°26'2 1.7
2015-Jun-30 03:33N 34°33' E 135°24'1 0.7
2015-Jun-30 02:33N 34°34' E 135°24'0 0.3
2015-Jun-30 01:31N 34°34' E 135°24'3 3.3
2015-Jun-30 00:29N 34°33' E 135°20'4 4.8
2015-Jun-29 23:32N 34°33' E 135°26'1 0.6
2015-Jun-29 22:14N 34°33' E 135°27'0 0.0
2015-Jun-29 21:26N 34°33' E 135°27'0 0.0
2015-Jun-29 07:33N 34°33' E 135°27'6 5.7
2015-Jun-29 06:34N 34°38' E 135°24'2 2.4
2015-Jun-29 05:33N 34°36' E 135°24'0 0.0
2015-Jun-29 04:33N 34°36' E 135°24'0 0.0
2015-Jun-29 03:33N 34°36' E 135°24'0 0.0
2015-Jun-29 02:33N 34°36' E 135°24'0 0.0
2015-Jun-29 01:33N 34°36' E 135°24'0 0.0
2015-Jun-29 00:32N 34°36' E 135°24'3 3.4
2015-Jun-28 23:33N 34°33' E 135°24'2 1.6
2015-Jun-28 22:25N 34°31' E 135°23'1 1.2
2015-Jun-28 21:33N 34°32' E 135°23'3 3.2
2015-Jun-28 20:33N 34°33' E 135°27'0 0.0
2015-Jun-28 07:32N 34°33' E 135°27'1110.7
2015-Jun-28 06:29N 34°28' E 135°14'8 4.4
2015-Jun-28 04:33N 34°25' E 135°05'1414.6
2015-Jun-28 03:33N 34°33' E 135°19'4 3.8
2015-Jun-28 02:26N 34°34' E 135°24'3 3.4
2015-Jun-28 01:31N 34°31' E 135°24'3 3.3
2015-Jun-28 00:33N 34°33' E 135°27'0 0.0
2015-Jun-27 23:33N 34°33' E 135°27'0 0.0
2015-Jun-27 08:31N 34°33' E 135°27'2 1.9
2015-Jun-27 07:33N 34°34' E 135°24'2 1.8
2015-Jun-27 06:33N 34°33' E 135°27'0 0.0
2015-Jun-27 05:31N 34°33' E 135°27'0 0.0
2015-Jun-27 04:30N 34°33' E 135°27'0 0.0
2015-Jun-27 03:33N 34°33' E 135°27'2 1.6
2015-Jun-27 02:18N 34°34' E 135°24'0 0.0
2015-Jun-27 01:28N 34°34' E 135°24'3 3.3
2015-Jun-27 00:32N 34°33' E 135°21'9 9.1
2015-Jun-26 23:33N 34°29' E 135°12'1712.0
2015-Jun-26 22:08N 34°15' E 134°60'2 3.7
2015-Jun-26 21:33N 34°13' E 135°00'1111.2
2015-Jun-26 20:33N 34°23' E 135°05'1313.0
2015-Jun-26 19:33N 34°30' E 135°18'8 7.5
2015-Jun-26 18:33N 34°33' E 135°27'0 0.0
2015-Jun-26 01:30N 34°33' E 135°27'1 1.5
2015-Jun-26 00:33N 34°33' E 135°25'1 1.3
2015-Jun-25 23:33N 34°33' E 135°27'0 0.1
2015-Jun-25 22:33N 34°33' E 135°27'2 0.1
2015-Jun-25 07:30N 34°33' E 135°24'1 1.5
2015-Jun-25 06:33N 34°33' E 135°26'0 0.1
2015-Jun-25 05:32N 34°33' E 135°26'0 0.1
2015-Jun-25 04:32N 34°33' E 135°26'0 0.1
2015-Jun-25 03:33N 34°33' E 135°26'0 0.1
2015-Jun-25 02:33N 34°33' E 135°26'0 0.0
2015-Jun-25 01:26N 34°33' E 135°26'0 0.1
2015-Jun-25 00:32N 34°33' E 135°26'0 0.1
2015-Jun-24 23:33N 34°33' E 135°26'0 0.0
2015-Jun-24 22:32N 34°33' E 135°26'0 0.0
2015-Jun-24 21:33N 34°33' E 135°26'0 0.1
2015-Jun-24 20:33N 34°33' E 135°26'0 0.1
2015-Jun-24 19:33N 34°33' E 135°26'0 0.1
2015-Jun-24 18:33N 34°33' E 135°26'0 0.0
2015-Jun-24 17:33N 34°33' E 135°26'0 0.0
2015-Jun-24 16:30N 34°33' E 135°26'0 0.0
2015-Jun-24 15:33N 34°33' E 135°26'0 0.0
2015-Jun-24 14:32N 34°33' E 135°26'0 0.0
2015-Jun-24 13:33N 34°33' E 135°26'0 0.1
2015-Jun-24 12:33N 34°33' E 135°26'0 0.1
2015-Jun-24 11:33N 34°33' E 135°26'0 0.0
2015-Jun-24 10:33N 34°33' E 135°26'0 0.1
2015-Jun-24 09:31N 34°33' E 135°26'0 0.1
2015-Jun-24 08:32N 34°33' E 135°26'0 0.1
2015-Jun-24 07:32N 34°33' E 135°26'0 0.0
2015-Jun-24 06:33N 34°33' E 135°26'0 0.1
2015-Jun-24 05:32N 34°33' E 135°26'0 0.2
2015-Jun-24 04:33N 34°33' E 135°26'0 0.0
2015-Jun-24 03:33N 34°33' E 135°26'2 2.0
2015-Jun-24 02:33N 34°33' E 135°24'2 2.5
2015-Jun-24 01:33N 34°34' E 135°21'4 4.4
2015-Jun-24 00:32N 34°33' E 135°26'1 0.6
2015-Jun-23 23:33N 34°33' E 135°27'0 0.0
2015-Jun-22 04:23N 34°33' E 135°27'1 0.7
2015-Jun-22 03:32N 34°33' E 135°26'0 0.0
2015-Jun-22 02:32N 34°33' E 135°26'2 2.3
2015-Jun-22 01:33N 34°33' E 135°23'3 3.4
2015-Jun-22 00:33N 34°34' E 135°19'6 6.3
2015-Jun-21 23:33N 34°33' E 135°27'0 0.0
2015-Jun-21 22:33N 34°33' E 135°27'  
Track history (hours):
 
Tides and Currents Weather Stations Pressure Air Temp Water Temp Dewpoint Dewpoint Depression Visibility Wind Speed Wind Dir Waves Ship Positions

Ryuhomaru

Last reported at 2015-Jun-30 04:33 UTC. Time now 2015-Jun-30 14:26 UTC.
Position N 34°33' E 135°26'.

Length 42 m; draft 3.5 m.

Type: Tug. MMSI: 431000586.

Date/timePositionNaut miles runAvg speedWind from/ knotsBaromVisibWave heightAir tempDewpointWater temp
2015-Jun-30 04:33N 34°33' E 135°26'2 1.7
2015-Jun-30 03:33N 34°33' E 135°24'1 0.7
2015-Jun-30 02:33N 34°34' E 135°24'0 0.3
2015-Jun-30 01:31N 34°34' E 135°24'3 3.3
2015-Jun-30 00:29N 34°33' E 135°20'4 4.8
2015-Jun-29 23:32N 34°33' E 135°26'1 0.6
2015-Jun-29 22:14N 34°33' E 135°27'0 0.0
2015-Jun-29 21:26N 34°33' E 135°27'0 0.0
2015-Jun-29 07:33N 34°33' E 135°27'6 5.7
2015-Jun-29 06:34N 34°38' E 135°24'2 2.4
2015-Jun-29 05:33N 34°36' E 135°24'0 0.0
2015-Jun-29 04:33N 34°36' E 135°24'0 0.0
2015-Jun-29 03:33N 34°36' E 135°24'0 0.0
2015-Jun-29 02:33N 34°36' E 135°24'0 0.0
2015-Jun-29 01:33N 34°36' E 135°24'0 0.0
2015-Jun-29 00:32N 34°36' E 135°24'3 3.4
2015-Jun-28 23:33N 34°33' E 135°24'2 1.6
2015-Jun-28 22:25N 34°31' E 135°23'1 1.2
2015-Jun-28 21:33N 34°32' E 135°23'3 3.2
2015-Jun-28 20:33N 34°33' E 135°27'0 0.0
2015-Jun-28 07:32N 34°33' E 135°27'1110.7
2015-Jun-28 06:29N 34°28' E 135°14'8 4.4
2015-Jun-28 04:33N 34°25' E 135°05'1414.6
2015-Jun-28 03:33N 34°33' E 135°19'4 3.8
2015-Jun-28 02:26N 34°34' E 135°24'3 3.4
2015-Jun-28 01:31N 34°31' E 135°24'3 3.3
2015-Jun-28 00:33N 34°33' E 135°27'0 0.0
2015-Jun-27 23:33N 34°33' E 135°27'0 0.0
2015-Jun-27 08:31N 34°33' E 135°27'2 1.9
2015-Jun-27 07:33N 34°34' E 135°24'2 1.8
2015-Jun-27 06:33N 34°33' E 135°27'0 0.0
2015-Jun-27 05:31N 34°33' E 135°27'0 0.0
2015-Jun-27 04:30N 34°33' E 135°27'0 0.0
2015-Jun-27 03:33N 34°33' E 135°27'2 1.6
2015-Jun-27 02:18N 34°34' E 135°24'0 0.0
2015-Jun-27 01:28N 34°34' E 135°24'3 3.3
2015-Jun-27 00:32N 34°33' E 135°21'9 9.1
2015-Jun-26 23:33N 34°29' E 135°12'1712.0
2015-Jun-26 22:08N 34°15' E 134°60'2 3.7
2015-Jun-26 21:33N 34°13' E 135°00'1111.2
2015-Jun-26 20:33N 34°23' E 135°05'1313.0
2015-Jun-26 19:33N 34°30' E 135°18'8 7.5
2015-Jun-26 18:33N 34°33' E 135°27'0 0.0
2015-Jun-26 01:30N 34°33' E 135°27'1 1.5
2015-Jun-26 00:33N 34°33' E 135°25'1 1.3
2015-Jun-25 23:33N 34°33' E 135°27'0 0.1
2015-Jun-25 22:33N 34°33' E 135°27'2 0.1
2015-Jun-25 07:30N 34°33' E 135°24'1 1.5
2015-Jun-25 06:33N 34°33' E 135°26'0 0.1
2015-Jun-25 05:32N 34°33' E 135°26'0 0.1
2015-Jun-25 04:32N 34°33' E 135°26'0 0.1
2015-Jun-25 03:33N 34°33' E 135°26'0 0.1
2015-Jun-25 02:33N 34°33' E 135°26'0 0.0
2015-Jun-25 01:26N 34°33' E 135°26'0 0.1
2015-Jun-25 00:32N 34°33' E 135°26'0 0.1
2015-Jun-24 23:33N 34°33' E 135°26'0 0.0
2015-Jun-24 22:32N 34°33' E 135°26'0 0.0
2015-Jun-24 21:33N 34°33' E 135°26'0 0.1
2015-Jun-24 20:33N 34°33' E 135°26'0 0.1
2015-Jun-24 19:33N 34°33' E 135°26'0 0.1
2015-Jun-24 18:33N 34°33' E 135°26'0 0.0
2015-Jun-24 17:33N 34°33' E 135°26'0 0.0
2015-Jun-24 16:30N 34°33' E 135°26'0 0.0
2015-Jun-24 15:33N 34°33' E 135°26'0 0.0
2015-Jun-24 14:32N 34°33' E 135°26'0 0.0
2015-Jun-24 13:33N 34°33' E 135°26'0 0.1
2015-Jun-24 12:33N 34°33' E 135°26'0 0.1
2015-Jun-24 11:33N 34°33' E 135°26'0 0.0
2015-Jun-24 10:33N 34°33' E 135°26'0 0.1
2015-Jun-24 09:31N 34°33' E 135°26'0 0.1
2015-Jun-24 08:32N 34°33' E 135°26'0 0.1
2015-Jun-24 07:32N 34°33' E 135°26'0 0.0
2015-Jun-24 06:33N 34°33' E 135°26'0 0.1
2015-Jun-24 05:32N 34°33' E 135°26'0 0.2
2015-Jun-24 04:33N 34°33' E 135°26'0 0.0
2015-Jun-24 03:33N 34°33' E 135°26'2 2.0
2015-Jun-24 02:33N 34°33' E 135°24'2 2.5
2015-Jun-24 01:33N 34°34' E 135°21'4 4.4
2015-Jun-24 00:32N 34°33' E 135°26'1 0.6
2015-Jun-23 23:33N 34°33' E 135°27'0 0.0
2015-Jun-22 04:23N 34°33' E 135°27'1 0.7
2015-Jun-22 03:32N 34°33' E 135°26'0 0.0
2015-Jun-22 02:32N 34°33' E 135°26'2 2.3
2015-Jun-22 01:33N 34°33' E 135°23'3 3.4
2015-Jun-22 00:33N 34°34' E 135°19'6 6.3
2015-Jun-21 23:33N 34°33' E 135°27'0 0.0
2015-Jun-21 22:33N 34°33' E 135°27'  

Dump ship's entire track history